sensor_id;sensor_type;location;lat;lon;timestamp;P1;durP1;ratioP1;P2;durP2;ratioP2
37905;SDS011;23739;51.448;6.674;2023-07-13T00:00:25;4.30;;;1.55;;
37905;SDS011;23739;51.448;6.674;2023-07-13T00:02:51;4.60;;;1.73;;
37905;SDS011;23739;51.448;6.674;2023-07-13T00:05:21;4.43;;;1.50;;
37905;SDS011;23739;51.448;6.674;2023-07-13T00:07:47;6.88;;;1.40;;
37905;SDS011;23739;51.448;6.674;2023-07-13T00:10:13;3.55;;;1.13;;
37905;SDS011;23739;51.448;6.674;2023-07-13T00:12:40;3.38;;;1.20;;
37905;SDS011;23739;51.448;6.674;2023-07-13T00:15:10;5.45;;;1.83;;
37905;SDS011;23739;51.448;6.674;2023-07-13T00:17:37;4.55;;;1.48;;
37905;SDS011;23739;51.448;6.674;2023-07-13T00:20:04;6.82;;;1.95;;
37905;SDS011;23739;51.448;6.674;2023-07-13T00:22:30;4.95;;;1.20;;
37905;SDS011;23739;51.448;6.674;2023-07-13T00:24:56;4.07;;;1.02;;
37905;SDS011;23739;51.448;6.674;2023-07-13T00:27:23;5.72;;;1.48;;
37905;SDS011;23739;51.448;6.674;2023-07-13T00:39:01;4.28;;;1.30;;
37905;SDS011;23739;51.448;6.674;2023-07-13T00:41:29;3.75;;;1.58;;
37905;SDS011;23739;51.448;6.674;2023-07-13T00:43:56;10.38;;;2.22;;
37905;SDS011;23739;51.448;6.674;2023-07-13T00:46:29;4.03;;;1.27;;
37905;SDS011;23739;51.448;6.674;2023-07-13T00:48:56;5.38;;;1.45;;
37905;SDS011;23739;51.448;6.674;2023-07-13T00:51:28;5.78;;;1.45;;
37905;SDS011;23739;51.448;6.674;2023-07-13T00:53:56;7.25;;;1.05;;
37905;SDS011;23739;51.448;6.674;2023-07-13T00:56:23;4.75;;;1.27;;
37905;SDS011;23739;51.448;6.674;2023-07-13T00:58:49;4.50;;;1.77;;
37905;SDS011;23739;51.448;6.674;2023-07-13T01:01:15;4.18;;;1.50;;
37905;SDS011;23739;51.448;6.674;2023-07-13T01:03:41;4.07;;;1.15;;
37905;SDS011;23739;51.448;6.674;2023-07-13T01:06:08;5.68;;;1.80;;
37905;SDS011;23739;51.448;6.674;2023-07-13T01:08:34;4.35;;;1.08;;
37905;SDS011;23739;51.448;6.674;2023-07-13T01:11:00;4.03;;;1.27;;
37905;SDS011;23739;51.448;6.674;2023-07-13T01:13:26;6.30;;;1.77;;
37905;SDS011;23739;51.448;6.674;2023-07-13T01:15:53;4.75;;;1.35;;
37905;SDS011;23739;51.448;6.674;2023-07-13T01:18:23;3.58;;;1.50;;
37905;SDS011;23739;51.448;6.674;2023-07-13T01:20:51;5.65;;;1.33;;
37905;SDS011;23739;51.448;6.674;2023-07-13T01:23:17;5.72;;;1.45;;
37905;SDS011;23739;51.448;6.674;2023-07-13T01:25:44;5.43;;;1.95;;
37905;SDS011;23739;51.448;6.674;2023-07-13T01:28:10;5.95;;;1.38;;
37905;SDS011;23739;51.448;6.674;2023-07-13T01:30:37;6.95;;;1.40;;
37905;SDS011;23739;51.448;6.674;2023-07-13T01:33:05;3.60;;;1.45;;
37905;SDS011;23739;51.448;6.674;2023-07-13T01:35:32;7.85;;;2.13;;
37905;SDS011;23739;51.448;6.674;2023-07-13T01:37:58;6.35;;;1.27;;
37905;SDS011;23739;51.448;6.674;2023-07-13T01:40:26;4.30;;;1.63;;
37905;SDS011;23739;51.448;6.674;2023-07-13T01:42:52;3.88;;;1.38;;
37905;SDS011;23739;51.448;6.674;2023-07-13T01:45:18;6.50;;;1.88;;
37905;SDS011;23739;51.448;6.674;2023-07-13T01:47:45;4.13;;;1.45;;
37905;SDS011;23739;51.448;6.674;2023-07-13T01:50:11;7.32;;;1.73;;
37905;SDS011;23739;51.448;6.674;2023-07-13T01:52:37;5.38;;;1.60;;
37905;SDS011;23739;51.448;6.674;2023-07-13T01:55:03;6.28;;;1.90;;
37905;SDS011;23739;51.448;6.674;2023-07-13T01:57:29;7.32;;;1.48;;
37905;SDS011;23739;51.448;6.674;2023-07-13T01:59:55;9.82;;;1.20;;
37905;SDS011;23739;51.448;6.674;2023-07-13T02:02:22;5.63;;;1.45;;
37905;SDS011;23739;51.448;6.674;2023-07-13T02:04:48;6.53;;;1.58;;
37905;SDS011;23739;51.448;6.674;2023-07-13T02:07:14;4.07;;;1.60;;
37905;SDS011;23739;51.448;6.674;2023-07-13T02:09:40;6.38;;;1.52;;
37905;SDS011;23739;51.448;6.674;2023-07-13T02:12:07;7.38;;;1.60;;
37905;SDS011;23739;51.448;6.674;2023-07-13T02:14:34;6.13;;;1.50;;
37905;SDS011;23739;51.448;6.674;2023-07-13T02:17:00;5.90;;;1.70;;
37905;SDS011;23739;51.448;6.674;2023-07-13T02:19:26;2.55;;;1.13;;
37905;SDS011;23739;51.448;6.674;2023-07-13T02:21:52;4.07;;;1.98;;
37905;SDS011;23739;51.448;6.674;2023-07-13T02:24:18;8.63;;;1.63;;
37905;SDS011;23739;51.448;6.674;2023-07-13T02:26:45;4.90;;;1.40;;
37905;SDS011;23739;51.448;6.674;2023-07-13T02:29:12;3.90;;;1.83;;
37905;SDS011;23739;51.448;6.674;2023-07-13T02:31:38;6.90;;;1.55;;
37905;SDS011;23739;51.448;6.674;2023-07-13T02:34:04;7.03;;;1.58;;
37905;SDS011;23739;51.448;6.674;2023-07-13T02:36:30;8.85;;;1.70;;
37905;SDS011;23739;51.448;6.674;2023-07-13T02:38:57;5.85;;;1.40;;
37905;SDS011;23739;51.448;6.674;2023-07-13T02:41:24;6.50;;;1.95;;
37905;SDS011;23739;51.448;6.674;2023-07-13T02:43:50;7.45;;;2.53;;
37905;SDS011;23739;51.448;6.674;2023-07-13T02:46:16;6.85;;;1.58;;
37905;SDS011;23739;51.448;6.674;2023-07-13T02:48:44;8.85;;;2.08;;
37905;SDS011;23739;51.448;6.674;2023-07-13T02:51:10;7.32;;;2.03;;
37905;SDS011;23739;51.448;6.674;2023-07-13T02:53:36;5.68;;;1.83;;
37905;SDS011;23739;51.448;6.674;2023-07-13T02:56:03;9.10;;;1.83;;
37905;SDS011;23739;51.448;6.674;2023-07-13T02:58:29;5.25;;;1.48;;
37905;SDS011;23739;51.448;6.674;2023-07-13T03:00:56;7.03;;;1.38;;
37905;SDS011;23739;51.448;6.674;2023-07-13T03:03:22;5.80;;;1.30;;
37905;SDS011;23739;51.448;6.674;2023-07-13T03:05:57;5.38;;;1.65;;
37905;SDS011;23739;51.448;6.674;2023-07-13T03:08:25;4.22;;;1.70;;
37905;SDS011;23739;51.448;6.674;2023-07-13T03:13:52;8.37;;;1.63;;
37905;SDS011;23739;51.448;6.674;2023-07-13T03:16:18;4.45;;;1.83;;
37905;SDS011;23739;51.448;6.674;2023-07-13T03:18:45;6.90;;;1.58;;
37905;SDS011;23739;51.448;6.674;2023-07-13T03:21:12;4.95;;;1.77;;
37905;SDS011;23739;51.448;6.674;2023-07-13T03:23:38;7.82;;;2.13;;
37905;SDS011;23739;51.448;6.674;2023-07-13T03:26:05;12.25;;;2.28;;
37905;SDS011;23739;51.448;6.674;2023-07-13T03:28:32;5.15;;;2.00;;
37905;SDS011;23739;51.448;6.674;2023-07-13T03:30:59;4.07;;;1.58;;
37905;SDS011;23739;51.448;6.674;2023-07-13T03:33:25;3.08;;;1.88;;
37905;SDS011;23739;51.448;6.674;2023-07-13T03:35:51;2.60;;;1.40;;
37905;SDS011;23739;51.448;6.674;2023-07-13T03:38:17;5.82;;;1.60;;
37905;SDS011;23739;51.448;6.674;2023-07-13T03:40:44;6.07;;;2.75;;
37905;SDS011;23739;51.448;6.674;2023-07-13T03:43:10;6.80;;;1.70;;
37905;SDS011;23739;51.448;6.674;2023-07-13T03:45:39;6.10;;;1.35;;
37905;SDS011;23739;51.448;6.674;2023-07-13T03:48:06;2.97;;;1.40;;
37905;SDS011;23739;51.448;6.674;2023-07-13T03:50:32;4.72;;;1.67;;
37905;SDS011;23739;51.448;6.674;2023-07-13T03:52:59;3.97;;;1.75;;
37905;SDS011;23739;51.448;6.674;2023-07-13T03:55:25;5.35;;;2.25;;
37905;SDS011;23739;51.448;6.674;2023-07-13T03:57:53;6.78;;;1.85;;
37905;SDS011;23739;51.448;6.674;2023-07-13T04:00:20;10.40;;;2.45;;
37905;SDS011;23739;51.448;6.674;2023-07-13T04:02:46;8.85;;;2.17;;
37905;SDS011;23739;51.448;6.674;2023-07-13T04:05:14;4.88;;;2.28;;
37905;SDS011;23739;51.448;6.674;2023-07-13T04:07:40;8.45;;;2.50;;
37905;SDS011;23739;51.448;6.674;2023-07-13T04:10:06;6.20;;;1.92;;
37905;SDS011;23739;51.448;6.674;2023-07-13T04:12:33;8.98;;;1.92;;
37905;SDS011;23739;51.448;6.674;2023-07-13T04:14:59;7.10;;;1.90;;
37905;SDS011;23739;51.448;6.674;2023-07-13T04:17:25;8.13;;;1.83;;
37905;SDS011;23739;51.448;6.674;2023-07-13T04:19:51;5.78;;;1.60;;
37905;SDS011;23739;51.448;6.674;2023-07-13T04:22:17;6.25;;;1.83;;
37905;SDS011;23739;51.448;6.674;2023-07-13T04:24:43;7.53;;;1.73;;
37905;SDS011;23739;51.448;6.674;2023-07-13T04:27:09;5.40;;;2.75;;
37905;SDS011;23739;51.448;6.674;2023-07-13T04:29:35;8.25;;;1.83;;
37905;SDS011;23739;51.448;6.674;2023-07-13T04:32:01;5.30;;;2.05;;
37905;SDS011;23739;51.448;6.674;2023-07-13T04:34:27;5.85;;;1.80;;
37905;SDS011;23739;51.448;6.674;2023-07-13T04:36:54;7.30;;;2.55;;
37905;SDS011;23739;51.448;6.674;2023-07-13T04:39:20;4.93;;;2.33;;
37905;SDS011;23739;51.448;6.674;2023-07-13T04:41:46;5.55;;;1.98;;
37905;SDS011;23739;51.448;6.674;2023-07-13T04:44:12;9.05;;;2.00;;
37905;SDS011;23739;51.448;6.674;2023-07-13T04:46:38;5.90;;;1.77;;
37905;SDS011;23739;51.448;6.674;2023-07-13T04:49:04;8.55;;;2.53;;
37905;SDS011;23739;51.448;6.674;2023-07-13T04:51:30;7.47;;;1.95;;
37905;SDS011;23739;51.448;6.674;2023-07-13T04:53:56;7.03;;;2.38;;
37905;SDS011;23739;51.448;6.674;2023-07-13T04:56:22;8.20;;;2.67;;
37905;SDS011;23739;51.448;6.674;2023-07-13T04:58:48;8.75;;;2.08;;
37905;SDS011;23739;51.448;6.674;2023-07-13T05:01:14;9.35;;;2.55;;
37905;SDS011;23739;51.448;6.674;2023-07-13T05:03:40;11.23;;;2.60;;
37905;SDS011;23739;51.448;6.674;2023-07-13T05:06:07;7.88;;;2.83;;
37905;SDS011;23739;51.448;6.674;2023-07-13T05:08:35;7.28;;;2.13;;
37905;SDS011;23739;51.448;6.674;2023-07-13T05:11:01;8.60;;;2.05;;
37905;SDS011;23739;51.448;6.674;2023-07-13T05:13:28;8.38;;;2.33;;
37905;SDS011;23739;51.448;6.674;2023-07-13T05:16:01;5.07;;;2.65;;
37905;SDS011;23739;51.448;6.674;2023-07-13T05:18:28;10.10;;;2.65;;
37905;SDS011;23739;51.448;6.674;2023-07-13T05:20:58;7.82;;;2.15;;
37905;SDS011;23739;51.448;6.674;2023-07-13T05:23:24;11.48;;;3.08;;
37905;SDS011;23739;51.448;6.674;2023-07-13T05:25:50;6.32;;;2.20;;
37905;SDS011;23739;51.448;6.674;2023-07-13T05:28:16;6.10;;;3.10;;
37905;SDS011;23739;51.448;6.674;2023-07-13T05:30:46;6.20;;;2.60;;
37905;SDS011;23739;51.448;6.674;2023-07-13T05:33:12;7.40;;;2.30;;
37905;SDS011;23739;51.448;6.674;2023-07-13T05:35:38;7.18;;;2.88;;
37905;SDS011;23739;51.448;6.674;2023-07-13T05:38:05;7.95;;;2.50;;
37905;SDS011;23739;51.448;6.674;2023-07-13T05:40:31;12.40;;;3.45;;
37905;SDS011;23739;51.448;6.674;2023-07-13T05:42:57;5.30;;;2.20;;
37905;SDS011;23739;51.448;6.674;2023-07-13T05:45:23;7.60;;;2.92;;
37905;SDS011;23739;51.448;6.674;2023-07-13T05:47:50;11.25;;;2.65;;
37905;SDS011;23739;51.448;6.674;2023-07-13T05:50:16;10.43;;;2.65;;
37905;SDS011;23739;51.448;6.674;2023-07-13T05:52:43;8.38;;;2.85;;
37905;SDS011;23739;51.448;6.674;2023-07-13T05:55:09;7.90;;;2.65;;
37905;SDS011;23739;51.448;6.674;2023-07-13T05:57:35;10.40;;;3.53;;
37905;SDS011;23739;51.448;6.674;2023-07-13T06:00:01;9.35;;;2.80;;
37905;SDS011;23739;51.448;6.674;2023-07-13T06:02:27;10.13;;;3.60;;
37905;SDS011;23739;51.448;6.674;2023-07-13T06:04:53;12.88;;;3.35;;
37905;SDS011;23739;51.448;6.674;2023-07-13T06:07:19;10.93;;;3.13;;
37905;SDS011;23739;51.448;6.674;2023-07-13T06:09:45;9.38;;;2.40;;
37905;SDS011;23739;51.448;6.674;2023-07-13T06:12:11;6.47;;;2.58;;
37905;SDS011;23739;51.448;6.674;2023-07-13T06:14:38;5.47;;;3.15;;
37905;SDS011;23739;51.448;6.674;2023-07-13T06:17:04;9.02;;;3.10;;
37905;SDS011;23739;51.448;6.674;2023-07-13T06:19:30;7.72;;;3.33;;
37905;SDS011;23739;51.448;6.674;2023-07-13T06:21:56;7.35;;;3.03;;
37905;SDS011;23739;51.448;6.674;2023-07-13T06:24:23;7.25;;;2.97;;
37905;SDS011;23739;51.448;6.674;2023-07-13T06:26:49;7.95;;;3.80;;
37905;SDS011;23739;51.448;6.674;2023-07-13T06:29:15;5.82;;;2.85;;
37905;SDS011;23739;51.448;6.674;2023-07-13T06:31:42;14.52;;;4.68;;
37905;SDS011;23739;51.448;6.674;2023-07-13T06:34:08;13.13;;;3.85;;
37905;SDS011;23739;51.448;6.674;2023-07-13T06:36:34;10.30;;;3.47;;
37905;SDS011;23739;51.448;6.674;2023-07-13T06:39:01;11.95;;;3.50;;
37905;SDS011;23739;51.448;6.674;2023-07-13T06:41:27;9.73;;;3.05;;
37905;SDS011;23739;51.448;6.674;2023-07-13T06:43:55;16.67;;;3.95;;
37905;SDS011;23739;51.448;6.674;2023-07-13T06:46:21;10.23;;;4.32;;
37905;SDS011;23739;51.448;6.674;2023-07-13T06:48:48;11.20;;;3.85;;
37905;SDS011;23739;51.448;6.674;2023-07-13T06:51:14;6.82;;;3.08;;
37905;SDS011;23739;51.448;6.674;2023-07-13T06:53:40;13.57;;;3.45;;
37905;SDS011;23739;51.448;6.674;2023-07-13T06:56:08;12.07;;;3.60;;
37905;SDS011;23739;51.448;6.674;2023-07-13T06:58:35;14.10;;;3.58;;
37905;SDS011;23739;51.448;6.674;2023-07-13T07:01:02;10.43;;;3.60;;
37905;SDS011;23739;51.448;6.674;2023-07-13T07:03:28;13.05;;;4.60;;
37905;SDS011;23739;51.448;6.674;2023-07-13T07:05:54;15.38;;;4.30;;
37905;SDS011;23739;51.448;6.674;2023-07-13T07:08:20;13.13;;;4.70;;
37905;SDS011;23739;51.448;6.674;2023-07-13T07:10:46;11.95;;;4.00;;
37905;SDS011;23739;51.448;6.674;2023-07-13T07:13:16;12.07;;;4.53;;
37905;SDS011;23739;51.448;6.674;2023-07-13T07:15:42;10.15;;;4.30;;
37905;SDS011;23739;51.448;6.674;2023-07-13T07:18:08;13.35;;;3.90;;
37905;SDS011;23739;51.448;6.674;2023-07-13T07:20:34;13.10;;;4.05;;
37905;SDS011;23739;51.448;6.674;2023-07-13T07:23:01;9.68;;;3.42;;
37905;SDS011;23739;51.448;6.674;2023-07-13T07:25:27;12.88;;;3.88;;
37905;SDS011;23739;51.448;6.674;2023-07-13T07:27:57;10.75;;;4.18;;
37905;SDS011;23739;51.448;6.674;2023-07-13T07:30:24;11.95;;;3.53;;
37905;SDS011;23739;51.448;6.674;2023-07-13T07:32:50;11.10;;;4.28;;
37905;SDS011;23739;51.448;6.674;2023-07-13T07:35:16;7.85;;;3.53;;
37905;SDS011;23739;51.448;6.674;2023-07-13T07:37:42;12.25;;;4.85;;
37905;SDS011;23739;51.448;6.674;2023-07-13T07:40:08;12.27;;;4.53;;
37905;SDS011;23739;51.448;6.674;2023-07-13T07:42:34;9.85;;;4.55;;
37905;SDS011;23739;51.448;6.674;2023-07-13T07:45:00;7.43;;;4.07;;
37905;SDS011;23739;51.448;6.674;2023-07-13T07:47:27;10.05;;;4.05;;
37905;SDS011;23739;51.448;6.674;2023-07-13T07:49:53;13.80;;;4.45;;
37905;SDS011;23739;51.448;6.674;2023-07-13T07:52:19;10.57;;;4.05;;
37905;SDS011;23739;51.448;6.674;2023-07-13T07:54:45;10.95;;;4.78;;
37905;SDS011;23739;51.448;6.674;2023-07-13T07:57:11;14.07;;;3.88;;
37905;SDS011;23739;51.448;6.674;2023-07-13T07:59:37;9.60;;;4.18;;
37905;SDS011;23739;51.448;6.674;2023-07-13T08:02:03;9.50;;;4.45;;
37905;SDS011;23739;51.448;6.674;2023-07-13T08:04:30;7.88;;;4.32;;
37905;SDS011;23739;51.448;6.674;2023-07-13T08:06:56;12.82;;;4.28;;
37905;SDS011;23739;51.448;6.674;2023-07-13T08:09:22;10.52;;;3.72;;
37905;SDS011;23739;51.448;6.674;2023-07-13T08:11:48;16.50;;;4.57;;
37905;SDS011;23739;51.448;6.674;2023-07-13T08:14:14;10.90;;;4.53;;
37905;SDS011;23739;51.448;6.674;2023-07-13T08:16:41;7.65;;;4.10;;
37905;SDS011;23739;51.448;6.674;2023-07-13T08:19:07;8.63;;;3.60;;
37905;SDS011;23739;51.448;6.674;2023-07-13T08:21:33;12.40;;;4.68;;
37905;SDS011;23739;51.448;6.674;2023-07-13T08:23:59;6.30;;;4.10;;
37905;SDS011;23739;51.448;6.674;2023-07-13T08:26:25;13.20;;;3.90;;
37905;SDS011;23739;51.448;6.674;2023-07-13T08:28:51;6.45;;;3.78;;
37905;SDS011;23739;51.448;6.674;2023-07-13T08:31:17;20.40;;;4.90;;
37905;SDS011;23739;51.448;6.674;2023-07-13T08:33:44;8.82;;;4.05;;
37905;SDS011;23739;51.448;6.674;2023-07-13T08:36:10;10.57;;;4.00;;
37905;SDS011;23739;51.448;6.674;2023-07-13T08:38:36;6.90;;;3.55;;
37905;SDS011;23739;51.448;6.674;2023-07-13T08:41:09;8.05;;;4.32;;
37905;SDS011;23739;51.448;6.674;2023-07-13T08:43:36;9.30;;;4.70;;
37905;SDS011;23739;51.448;6.674;2023-07-13T08:48:49;15.33;;;3.77;;
37905;SDS011;23739;51.448;6.674;2023-07-13T08:53:46;12.55;;;3.72;;
37905;SDS011;23739;51.448;6.674;2023-07-13T08:56:17;7.95;;;4.22;;
37905;SDS011;23739;51.448;6.674;2023-07-13T08:58:48;8.75;;;3.63;;
37905;SDS011;23739;51.448;6.674;2023-07-13T09:01:28;7.93;;;3.15;;
37905;SDS011;23739;51.448;6.674;2023-07-13T09:06:23;8.95;;;3.45;;
37905;SDS011;23739;51.448;6.674;2023-07-13T09:08:57;8.30;;;3.67;;
37905;SDS011;23739;51.448;6.674;2023-07-13T09:16:23;10.13;;;3.92;;
37905;SDS011;23739;51.448;6.674;2023-07-13T09:18:50;8.52;;;3.50;;
37905;SDS011;23739;51.448;6.674;2023-07-13T09:21:18;10.70;;;4.68;;
37905;SDS011;23739;51.448;6.674;2023-07-13T09:23:46;10.88;;;3.08;;
37905;SDS011;23739;51.448;6.674;2023-07-13T09:26:14;8.35;;;4.10;;
37905;SDS011;23739;51.448;6.674;2023-07-13T09:28:47;6.60;;;3.90;;
37905;SDS011;23739;51.448;6.674;2023-07-13T09:31:24;7.50;;;3.30;;
37905;SDS011;23739;51.448;6.674;2023-07-13T09:33:51;10.38;;;3.30;;
37905;SDS011;23739;51.448;6.674;2023-07-13T09:36:39;8.82;;;3.38;;
37905;SDS011;23739;51.448;6.674;2023-07-13T09:41:54;5.63;;;3.10;;
37905;SDS011;23739;51.448;6.674;2023-07-13T09:44:29;6.15;;;3.30;;
37905;SDS011;23739;51.448;6.674;2023-07-13T09:46:58;7.88;;;3.25;;
37905;SDS011;23739;51.448;6.674;2023-07-13T09:49:25;8.35;;;3.03;;
37905;SDS011;23739;51.448;6.674;2023-07-13T09:51:57;12.13;;;3.72;;
37905;SDS011;23739;51.448;6.674;2023-07-13T09:54:24;10.45;;;4.20;;
37905;SDS011;23739;51.448;6.674;2023-07-13T09:57:00;13.55;;;3.67;;
37905;SDS011;23739;51.448;6.674;2023-07-13T09:59:33;8.60;;;3.30;;
37905;SDS011;23739;51.448;6.674;2023-07-13T10:01:59;5.60;;;2.90;;
37905;SDS011;23739;51.448;6.674;2023-07-13T10:04:30;10.70;;;2.97;;
37905;SDS011;23739;51.448;6.674;2023-07-13T10:07:07;11.57;;;3.45;;
37905;SDS011;23739;51.448;6.674;2023-07-13T10:09:33;8.32;;;2.83;;
37905;SDS011;23739;51.448;6.674;2023-07-13T10:12:00;6.55;;;2.65;;
37905;SDS011;23739;51.448;6.674;2023-07-13T10:14:26;5.88;;;2.25;;
37905;SDS011;23739;51.448;6.674;2023-07-13T10:17:03;7.32;;;2.55;;
37905;SDS011;23739;51.448;6.674;2023-07-13T10:19:31;10.00;;;2.95;;
37905;SDS011;23739;51.448;6.674;2023-07-13T10:24:42;9.07;;;2.72;;
37905;SDS011;23739;51.448;6.674;2023-07-13T10:29:45;8.20;;;3.38;;
37905;SDS011;23739;51.448;6.674;2023-07-13T10:32:12;7.60;;;3.03;;
37905;SDS011;23739;51.448;6.674;2023-07-13T10:34:40;9.75;;;3.10;;
37905;SDS011;23739;51.448;6.674;2023-07-13T10:37:15;7.18;;;2.20;;
37905;SDS011;23739;51.448;6.674;2023-07-13T10:39:42;8.60;;;2.95;;
37905;SDS011;23739;51.448;6.674;2023-07-13T10:42:08;8.13;;;3.45;;
37905;SDS011;23739;51.448;6.674;2023-07-13T10:44:37;6.28;;;2.55;;
37905;SDS011;23739;51.448;6.674;2023-07-13T10:47:05;6.00;;;2.13;;
37905;SDS011;23739;51.448;6.674;2023-07-13T10:49:33;7.25;;;2.20;;
37905;SDS011;23739;51.448;6.674;2023-07-13T10:52:00;6.75;;;2.13;;
37905;SDS011;23739;51.448;6.674;2023-07-13T10:54:28;6.35;;;2.25;;
37905;SDS011;23739;51.448;6.674;2023-07-13T10:59:42;7.13;;;2.80;;
37905;SDS011;23739;51.448;6.674;2023-07-13T11:02:26;7.63;;;2.60;;
37905;SDS011;23739;51.448;6.674;2023-07-13T11:04:54;7.50;;;2.58;;
37905;SDS011;23739;51.448;6.674;2023-07-13T11:07:28;7.72;;;2.58;;
37905;SDS011;23739;51.448;6.674;2023-07-13T11:09:58;6.40;;;2.33;;
37905;SDS011;23739;51.448;6.674;2023-07-13T11:17:24;11.30;;;3.65;;
37905;SDS011;23739;51.448;6.674;2023-07-13T11:19:51;3.63;;;2.05;;
37905;SDS011;23739;51.448;6.674;2023-07-13T11:22:22;4.15;;;1.75;;
37905;SDS011;23739;51.448;6.674;2023-07-13T11:24:52;3.85;;;2.17;;
37905;SDS011;23739;51.448;6.674;2023-07-13T11:30:06;6.18;;;2.42;;
37905;SDS011;23739;51.448;6.674;2023-07-13T11:32:32;4.72;;;1.75;;
37905;SDS011;23739;51.448;6.674;2023-07-13T11:34:58;4.78;;;2.35;;
37905;SDS011;23739;51.448;6.674;2023-07-13T11:37:25;6.85;;;2.28;;
37905;SDS011;23739;51.448;6.674;2023-07-13T11:39:53;7.10;;;2.38;;
37905;SDS011;23739;51.448;6.674;2023-07-13T11:42:20;7.93;;;1.90;;
37905;SDS011;23739;51.448;6.674;2023-07-13T11:44:48;7.63;;;2.30;;
37905;SDS011;23739;51.448;6.674;2023-07-13T11:47:18;6.25;;;2.00;;
37905;SDS011;23739;51.448;6.674;2023-07-13T11:49:50;10.05;;;2.53;;
37905;SDS011;23739;51.448;6.674;2023-07-13T11:52:18;4.03;;;1.73;;
37905;SDS011;23739;51.448;6.674;2023-07-13T11:54:51;6.30;;;1.77;;
37905;SDS011;23739;51.448;6.674;2023-07-13T11:59:56;7.15;;;1.77;;
37905;SDS011;23739;51.448;6.674;2023-07-13T12:04:49;4.68;;;1.98;;
37905;SDS011;23739;51.448;6.674;2023-07-13T12:07:18;6.72;;;1.60;;
37905;SDS011;23739;51.448;6.674;2023-07-13T12:09:44;6.03;;;2.97;;
37905;SDS011;23739;51.448;6.674;2023-07-13T12:12:15;7.75;;;2.67;;
37905;SDS011;23739;51.448;6.674;2023-07-13T12:14:42;5.45;;;1.90;;
37905;SDS011;23739;51.448;6.674;2023-07-13T12:17:22;7.53;;;2.22;;
37905;SDS011;23739;51.448;6.674;2023-07-13T12:19:48;6.85;;;1.98;;
37905;SDS011;23739;51.448;6.674;2023-07-13T12:22:15;5.82;;;1.77;;
37905;SDS011;23739;51.448;6.674;2023-07-13T12:24:43;3.20;;;1.70;;
37905;SDS011;23739;51.448;6.674;2023-07-13T12:27:22;5.30;;;1.90;;
37905;SDS011;23739;51.448;6.674;2023-07-13T12:29:56;3.17;;;1.40;;
37905;SDS011;23739;51.448;6.674;2023-07-13T12:32:24;5.07;;;1.70;;
37905;SDS011;23739;51.448;6.674;2023-07-13T12:35:13;6.80;;;1.50;;
37905;SDS011;23739;51.448;6.674;2023-07-13T12:37:41;3.35;;;1.83;;
37905;SDS011;23739;51.448;6.674;2023-07-13T12:40:13;8.13;;;1.80;;
37905;SDS011;23739;51.448;6.674;2023-07-13T12:42:39;6.45;;;2.30;;
37905;SDS011;23739;51.448;6.674;2023-07-13T12:45:19;6.05;;;2.17;;
37905;SDS011;23739;51.448;6.674;2023-07-13T12:47:50;8.23;;;2.75;;
37905;SDS011;23739;51.448;6.674;2023-07-13T12:50:17;4.28;;;1.67;;
37905;SDS011;23739;51.448;6.674;2023-07-13T12:52:43;8.77;;;2.85;;
37905;SDS011;23739;51.448;6.674;2023-07-13T12:55:14;4.30;;;1.98;;
37905;SDS011;23739;51.448;6.674;2023-07-13T12:57:45;4.38;;;2.00;;
37905;SDS011;23739;51.448;6.674;2023-07-13T13:02:54;6.50;;;2.03;;
37905;SDS011;23739;51.448;6.674;2023-07-13T13:05:21;4.90;;;1.50;;
37905;SDS011;23739;51.448;6.674;2023-07-13T13:07:48;2.97;;;1.70;;
37905;SDS011;23739;51.448;6.674;2023-07-13T13:10:14;8.07;;;1.95;;
37905;SDS011;23739;51.448;6.674;2023-07-13T13:12:41;10.70;;;2.08;;
37905;SDS011;23739;51.448;6.674;2023-07-13T13:15:10;2.70;;;1.30;;
37905;SDS011;23739;51.448;6.674;2023-07-13T13:17:40;3.08;;;1.77;;
37905;SDS011;23739;51.448;6.674;2023-07-13T13:20:16;4.72;;;1.75;;
37905;SDS011;23739;51.448;6.674;2023-07-13T13:22:43;5.97;;;1.73;;
37905;SDS011;23739;51.448;6.674;2023-07-13T13:25:13;2.88;;;1.63;;
37905;SDS011;23739;51.448;6.674;2023-07-13T13:27:42;4.82;;;2.08;;
37905;SDS011;23739;51.448;6.674;2023-07-13T13:30:10;4.30;;;1.80;;
37905;SDS011;23739;51.448;6.674;2023-07-13T13:32:38;8.95;;;1.65;;
37905;SDS011;23739;51.448;6.674;2023-07-13T13:35:04;7.22;;;1.90;;
37905;SDS011;23739;51.448;6.674;2023-07-13T13:37:31;5.75;;;2.20;;
37905;SDS011;23739;51.448;6.674;2023-07-13T13:39:57;3.47;;;1.73;;
37905;SDS011;23739;51.448;6.674;2023-07-13T13:42:23;4.03;;;1.25;;
37905;SDS011;23739;51.448;6.674;2023-07-13T13:44:52;4.57;;;1.65;;
37905;SDS011;23739;51.448;6.674;2023-07-13T13:49:47;4.05;;;1.90;;
37905;SDS011;23739;51.448;6.674;2023-07-13T13:52:13;2.33;;;1.30;;
37905;SDS011;23739;51.448;6.674;2023-07-13T13:54:40;4.43;;;1.38;;
37905;SDS011;23739;51.448;6.674;2023-07-13T13:57:06;6.43;;;1.30;;
37905;SDS011;23739;51.448;6.674;2023-07-13T13:59:32;4.88;;;1.55;;
37905;SDS011;23739;51.448;6.674;2023-07-13T14:02:26;7.45;;;2.58;;
37905;SDS011;23739;51.448;6.674;2023-07-13T14:05:01;8.27;;;2.78;;
37905;SDS011;23739;51.448;6.674;2023-07-13T14:07:28;6.00;;;2.42;;
37905;SDS011;23739;51.448;6.674;2023-07-13T14:09:57;4.32;;;1.90;;
37905;SDS011;23739;51.448;6.674;2023-07-13T14:12:24;5.45;;;2.25;;
37905;SDS011;23739;51.448;6.674;2023-07-13T14:14:53;7.18;;;2.03;;
37905;SDS011;23739;51.448;6.674;2023-07-13T14:17:20;4.68;;;2.10;;
37905;SDS011;23739;51.448;6.674;2023-07-13T14:19:47;4.50;;;2.22;;
37905;SDS011;23739;51.448;6.674;2023-07-13T14:22:16;4.28;;;1.73;;
37905;SDS011;23739;51.448;6.674;2023-07-13T14:24:42;6.63;;;2.47;;
37905;SDS011;23739;51.448;6.674;2023-07-13T14:27:11;7.47;;;2.70;;
37905;SDS011;23739;51.448;6.674;2023-07-13T14:29:41;4.43;;;1.60;;
37905;SDS011;23739;51.448;6.674;2023-07-13T14:32:11;5.97;;;2.00;;
37905;SDS011;23739;51.448;6.674;2023-07-13T14:34:38;4.65;;;2.08;;
37905;SDS011;23739;51.448;6.674;2023-07-13T14:37:04;4.97;;;2.40;;
37905;SDS011;23739;51.448;6.674;2023-07-13T14:39:31;4.20;;;2.15;;
37905;SDS011;23739;51.448;6.674;2023-07-13T14:41:57;8.38;;;2.75;;
37905;SDS011;23739;51.448;6.674;2023-07-13T14:44:25;7.93;;;2.38;;
37905;SDS011;23739;51.448;6.674;2023-07-13T14:46:51;5.38;;;1.70;;
37905;SDS011;23739;51.448;6.674;2023-07-13T14:51:47;4.00;;;2.05;;
37905;SDS011;23739;51.448;6.674;2023-07-13T14:54:13;4.68;;;2.50;;
37905;SDS011;23739;51.448;6.674;2023-07-13T14:56:40;5.57;;;2.10;;
37905;SDS011;23739;51.448;6.674;2023-07-13T14:59:06;5.22;;;2.38;;
37905;SDS011;23739;51.448;6.674;2023-07-13T15:01:34;5.35;;;2.20;;
37905;SDS011;23739;51.448;6.674;2023-07-13T15:04:00;6.03;;;2.70;;
37905;SDS011;23739;51.448;6.674;2023-07-13T15:06:26;11.20;;;3.20;;
37905;SDS011;23739;51.448;6.674;2023-07-13T15:08:53;7.10;;;2.60;;
37905;SDS011;23739;51.448;6.674;2023-07-13T15:11:23;4.22;;;1.92;;
37905;SDS011;23739;51.448;6.674;2023-07-13T15:13:49;3.47;;;2.10;;
37905;SDS011;23739;51.448;6.674;2023-07-13T15:16:25;3.90;;;1.52;;
37905;SDS011;23739;51.448;6.674;2023-07-13T15:18:51;4.40;;;1.80;;
37905;SDS011;23739;51.448;6.674;2023-07-13T15:21:21;4.63;;;2.15;;
37905;SDS011;23739;51.448;6.674;2023-07-13T15:23:48;5.50;;;2.30;;
37905;SDS011;23739;51.448;6.674;2023-07-13T15:26:15;3.10;;;1.67;;
37905;SDS011;23739;51.448;6.674;2023-07-13T15:28:42;3.63;;;1.80;;
37905;SDS011;23739;51.448;6.674;2023-07-13T15:31:29;5.85;;;2.00;;
37905;SDS011;23739;51.448;6.674;2023-07-13T15:33:57;3.47;;;1.83;;
37905;SDS011;23739;51.448;6.674;2023-07-13T15:36:24;5.20;;;2.00;;
37905;SDS011;23739;51.448;6.674;2023-07-13T15:38:51;4.78;;;1.83;;
37905;SDS011;23739;51.448;6.674;2023-07-13T15:43:45;3.00;;;2.03;;
37905;SDS011;23739;51.448;6.674;2023-07-13T15:46:11;2.65;;;1.73;;